Time;durP1;ratioP1;P1;durP2;ratioP2;P2;SDS_P1;SDS_P2;PMS_P1;PMS_P2;Temp;Humidity;BMP_temperature;BMP_pressure;BME280_temperature;BME280_humidity;BME280_pressure;Samples;Min_cycle;Max_cycle;Signal;HPM_P1;HPM_P2
2022/11/06 00:00:41;;;;;;;9.88;4.95;;;8.80;99.90;;;;;;5091924;28;20034;-72
2022/11/06 00:03:07;;;;;;;11.63;4.88;;;8.80;99.90;;;;;;5091544;28;20460;-71
2022/11/06 00:08:32;;;;;;;11.63;4.90;;;8.80;99.90;;;;;;5072427;28;20071;-71
2022/11/06 00:10:58;;;;;;;10.50;4.90;;;8.90;99.90;;;;;;5092542;28;20084;-71
2022/11/06 00:13:24;;;;;;;11.35;5.03;;;8.80;99.90;;;;;;5097235;28;20452;-70
2022/11/06 00:15:49;;;;;;;12.55;5.63;;;8.80;99.90;;;;;;5112603;28;20024;-71
2022/11/06 00:18:15;;;;;;;13.35;4.72;;;8.70;99.90;;;;;;5106111;28;20016;-70
2022/11/06 00:20:41;;;;;;;7.97;5.10;;;8.80;99.90;;;;;;5091871;28;20475;-71
2022/11/06 00:23:06;;;;;;;9.85;4.70;;;8.80;99.90;;;;;;5092267;28;20024;-71
2022/11/06 00:25:32;;;;;;;10.88;4.90;;;8.80;99.90;;;;;;5092290;28;20028;-72
2022/11/06 00:27:58;;;;;;;13.02;5.40;;;8.70;99.90;;;;;;5092548;28;20028;-71
2022/11/06 00:30:23;;;;;;;10.65;4.60;;;8.80;99.90;;;;;;5092256;28;20032;-71
2022/11/06 00:32:49;;;;;;;12.55;4.50;;;8.70;99.90;;;;;;5091739;28;20039;-71
2022/11/06 00:35:14;;;;;;;12.07;5.53;;;8.70;99.90;;;;;;5091743;28;20059;-71
2022/11/06 00:37:40;;;;;;;13.38;4.85;;;8.60;99.90;;;;;;5091765;28;20073;-71
2022/11/06 00:40:06;;;;;;;10.85;4.93;;;8.60;99.90;;;;;;5092062;28;20036;-71
2022/11/06 00:42:32;;;;;;;11.85;5.20;;;8.60;99.90;;;;;;5092039;28;20070;-71
2022/11/06 00:44:58;;;;;;;9.80;5.25;;;8.50;99.90;;;;;;5091434;28;20491;-71
2022/11/06 00:47:23;;;;;;;9.77;5.00;;;8.50;99.90;;;;;;5091754;28;20024;-70
2022/11/06 00:49:49;;;;;;;10.07;4.90;;;8.50;99.90;;;;;;5091931;28;20329;-71
2022/11/06 00:52:15;;;;;;;8.50;5.05;;;8.50;99.90;;;;;;5092004;28;20048;-70
2022/11/06 00:54:40;;;;;;;11.75;5.03;;;8.50;99.90;;;;;;5091307;28;20085;-72
2022/11/06 00:57:06;;;;;;;8.38;5.25;;;8.40;99.90;;;;;;5091972;28;20032;-71
2022/11/06 00:59:32;;;;;;;8.32;4.78;;;8.40;99.90;;;;;;5091937;28;20020;-71
2022/11/06 01:01:58;;;;;;;12.82;6.43;;;8.40;99.90;;;;;;5091431;28;20028;-70
2022/11/06 01:04:24;;;;;;;12.25;5.05;;;8.40;99.90;;;;;;5091991;28;20073;-71
2022/11/06 01:06:52;;;;;;;10.55;6.10;;;8.40;99.90;;;;;;5091535;28;20400;-71
2022/11/06 01:09:20;;;;;;;9.80;5.18;;;8.40;99.90;;;;;;5091810;28;20085;-70
2022/11/06 01:11:49;;;;;;;8.40;5.35;;;8.40;99.90;;;;;;5091409;28;20039;-71
2022/11/06 01:14:17;;;;;;;10.40;5.68;;;8.30;99.90;;;;;;5092950;28;20450;-72
2022/11/06 01:16:43;;;;;;;13.32;5.30;;;8.40;99.90;;;;;;5094859;28;20031;-72
2022/11/06 01:19:11;;;;;;;15.27;6.18;;;8.40;99.90;;;;;;5095507;28;20028;-71
2022/11/06 01:21:41;;;;;;;10.45;5.30;;;8.30;99.90;;;;;;5095242;28;20118;-74
2022/11/06 01:24:12;;;;;;;8.15;4.95;;;8.30;99.90;;;;;;5095341;28;20028;-71
2022/11/06 01:26:38;;;;;;;11.48;5.55;;;8.40;99.90;;;;;;5095008;28;20034;-72
2022/11/06 01:29:06;;;;;;;8.10;4.90;;;8.30;99.90;;;;;;5094997;28;20036;-73
2022/11/06 01:31:33;;;;;;;11.05;5.45;;;8.30;99.90;;;;;;5095340;28;20028;-72
2022/11/06 01:34:00;;;;;;;7.55;5.32;;;8.30;99.90;;;;;;5094860;28;20063;-71
2022/11/06 01:36:26;;;;;;;7.60;4.80;;;8.30;99.90;;;;;;5094874;28;20024;-71
2022/11/06 01:38:55;;;;;;;11.20;5.90;;;8.30;99.90;;;;;;5094629;28;20032;-70
2022/11/06 01:41:31;;;;;;;13.23;6.22;;;8.30;99.90;;;;;;5095039;28;20169;-70
2022/11/06 01:44:00;;;;;;;9.70;5.18;;;8.20;99.90;;;;;;5094801;28;20024;-72
2022/11/06 01:46:32;;;;;;;12.13;5.68;;;8.30;99.90;;;;;;5094684;28;20464;-72
2022/11/06 01:48:59;;;;;;;12.15;5.50;;;8.30;99.90;;;;;;5094586;28;20020;-72
2022/11/06 01:51:29;;;;;;;7.22;5.50;;;8.30;99.90;;;;;;5094639;28;20509;-71
2022/11/06 01:53:55;;;;;;;10.60;5.25;;;8.30;99.90;;;;;;5092954;28;20078;-71
2022/11/06 01:56:22;;;;;;;9.60;5.78;;;8.30;99.90;;;;;;5094929;28;20032;-71
2022/11/06 01:58:52;;;;;;;12.25;5.70;;;8.30;99.90;;;;;;5094308;28;20032;-72
2022/11/06 02:01:18;;;;;;;12.55;6.00;;;8.30;99.90;;;;;;5094202;28;20024;-71
2022/11/06 02:04:13;;;;;;;10.30;5.97;;;8.30;99.90;;;;;;5094187;28;20024;-72
2022/11/06 02:06:38;;;;;;;10.32;5.93;;;8.30;99.90;;;;;;5093408;28;20032;-72
2022/11/06 02:09:10;;;;;;;9.23;5.88;;;8.30;99.90;;;;;;5094132;28;20028;-71
2022/11/06 02:11:37;;;;;;;14.50;6.82;;;8.30;99.90;;;;;;5094410;28;20102;-72
2022/11/06 02:14:24;;;;;;;10.68;6.18;;;8.30;99.90;;;;;;5092670;28;20024;-72
2022/11/06 02:16:49;;;;;;;13.18;6.80;;;8.20;99.90;;;;;;5094473;28;20063;-71
2022/11/06 02:19:33;;;;;;;13.77;6.35;;;8.20;99.90;;;;;;5094101;28;20070;-71
2022/11/06 02:22:05;;;;;;;12.13;6.10;;;8.30;99.90;;;;;;5093864;28;20111;-71
2022/11/06 02:24:52;;;;;;;10.20;6.68;;;8.30;99.90;;;;;;5110317;28;20035;-71
2022/11/06 02:27:26;;;;;;;14.27;6.32;;;8.30;99.90;;;;;;5113702;28;20024;-71
2022/11/06 02:30:07;;;;;;;14.00;6.20;;;8.30;99.90;;;;;;5113889;28;20099;-71
2022/11/06 02:32:40;;;;;;;10.30;6.28;;;8.30;99.90;;;;;;5114252;28;20107;-71
2022/11/06 02:35:19;;;;;;;9.27;6.10;;;8.30;99.90;;;;;;5114275;28;20048;-71
2022/11/06 02:37:48;;;;;;;11.48;6.28;;;8.30;99.90;;;;;;5114050;28;20082;-71
2022/11/06 02:40:15;;;;;;;9.82;5.85;;;8.30;99.90;;;;;;5114376;28;20031;-71
2022/11/06 02:42:44;;;;;;;10.05;6.25;;;8.30;99.90;;;;;;5114131;28;20038;-71
2022/11/06 02:45:13;;;;;;;10.02;6.15;;;8.20;99.90;;;;;;5114684;28;20038;-71
2022/11/06 02:47:40;;;;;;;13.60;6.75;;;8.20;99.90;;;;;;5114137;28;20024;-71
2022/11/06 02:50:17;;;;;;;10.27;6.15;;;8.20;99.90;;;;;;5113395;28;20412;-71
2022/11/06 02:53:05;;;;;;;12.95;6.63;;;8.20;99.90;;;;;;5113800;28;20483;-71
2022/11/06 02:55:32;;;;;;;15.57;6.80;;;8.20;99.90;;;;;;5095705;28;20031;-70
2022/11/06 02:58:04;;;;;;;16.60;6.25;;;8.10;99.90;;;;;;5113328;28;20032;-70
2022/11/06 03:00:33;;;;;;;14.20;6.07;;;8.20;99.90;;;;;;5114102;28;20027;-72
2022/11/06 03:03:08;;;;;;;9.68;6.35;;;8.20;99.90;;;;;;5112081;28;20035;-71
2022/11/06 03:06:12;;;;;;;10.02;6.30;;;8.20;99.90;;;;;;5113621;28;20042;-70
2022/11/06 03:08:48;;;;;;;11.07;5.85;;;8.20;99.90;;;;;;5051067;28;20024;-71
2022/11/06 03:11:19;;;;;;;12.10;7.00;;;8.20;99.90;;;;;;5106511;28;20028;-71
2022/11/06 03:13:57;;;;;;;12.80;6.35;;;8.20;99.90;;;;;;5113641;28;20020;-77
2022/11/06 03:16:25;;;;;;;10.10;6.55;;;8.20;99.90;;;;;;5113730;28;20533;-71
2022/11/06 03:18:59;;;;;;;15.95;6.90;;;8.20;99.90;;;;;;5112843;28;20027;-70
2022/11/06 03:21:55;;;;;;;12.18;6.55;;;8.10;99.90;;;;;;5113677;28;20020;-70
2022/11/06 03:24:38;;;;;;;13.98;7.13;;;8.10;99.90;;;;;;5112997;28;20479;-70
2022/11/06 03:27:11;;;;;;;11.02;7.00;;;8.10;99.90;;;;;;5112858;28;20035;-71
2022/11/06 03:29:44;;;;;;;11.73;6.90;;;8.10;99.90;;;;;;5113166;28;20023;-71
2022/11/06 03:32:36;;;;;;;16.75;7.40;;;8.10;99.90;;;;;;5112720;28;20031;-71
2022/11/06 03:35:08;;;;;;;11.13;7.18;;;8.10;99.90;;;;;;5104536;28;20039;-71
2022/11/06 03:37:43;;;;;;;15.10;7.18;;;8.00;99.90;;;;;;5111350;28;20023;-70
2022/11/06 03:40:14;;;;;;;11.75;7.57;;;8.00;99.90;;;;;;5112883;28;20023;-71
2022/11/06 03:42:41;;;;;;;14.55;9.40;;;8.00;99.90;;;;;;5113270;28;20023;-71
2022/11/06 03:45:17;;;;;;;12.13;7.28;;;7.90;99.90;;;;;;5112992;28;20061;-70
2022/11/06 03:47:47;;;;;;;15.93;7.80;;;8.00;99.90;;;;;;5111923;28;20027;-71
2022/11/06 03:50:19;;;;;;;13.88;7.88;;;8.00;99.90;;;;;;5113090;28;20042;-71
2022/11/06 03:53:19;;;;;;;10.25;7.07;;;7.90;99.90;;;;;;5113097;28;20169;-71
2022/11/06 03:55:54;;;;;;;10.93;7.68;;;8.00;99.90;;;;;;5059901;28;20039;-71
2022/11/06 03:58:24;;;;;;;13.32;8.18;;;7.90;99.90;;;;;;5113125;28;20464;-71
2022/11/06 04:00:53;;;;;;;15.15;8.52;;;7.90;99.90;;;;;;5112223;28;20357;-71
2022/11/06 04:03:24;;;;;;;16.27;8.23;;;7.90;99.90;;;;;;5112858;28;20023;-73
2022/11/06 04:05:59;;;;;;;11.60;7.95;;;7.80;99.90;;;;;;5112590;28;20111;-71
2022/11/06 04:14:04;;;;;;;11.35;8.95;;;7.80;99.90;;;;;;5112467;28;20081;-71
2022/11/06 04:16:36;;;;;;;12.45;9.38;;;7.80;99.90;;;;;;5112587;28;20024;-71
2022/11/06 04:19:05;;;;;;;18.92;9.50;;;7.80;99.90;;;;;;5111248;28;20146;-72
2022/11/06 04:22:07;;;;;;;15.38;9.50;;;7.80;99.90;;;;;;5106642;28;20038;-70
2022/11/06 04:27:59;;;;;;;13.95;10.32;;;7.70;99.90;;;;;;5092456;28;20038;-71
2022/11/06 04:30:29;;;;;;;16.85;10.60;;;7.70;99.90;;;;;;5092347;28;20035;-71
2022/11/06 04:33:12;;;;;;;12.90;9.98;;;7.70;99.90;;;;;;5092076;28;20377;-70
2022/11/06 04:35:44;;;;;;;18.38;11.10;;;7.70;99.90;;;;;;5091994;28;20042;-71
2022/11/06 04:38:31;;;;;;;20.65;10.82;;;7.60;99.90;;;;;;5091860;28;20406;-70
2022/11/06 04:41:05;;;;;;;17.38;10.90;;;7.60;99.90;;;;;;5091878;28;20016;-71
2022/11/06 04:43:46;;;;;;;17.10;10.73;;;7.60;99.90;;;;;;5091997;28;20068;-71
2022/11/06 04:46:20;;;;;;;17.58;12.15;;;7.60;99.90;;;;;;5091815;28;20040;-71
2022/11/06 04:48:47;;;;;;;18.23;11.40;;;7.60;99.90;;;;;;5093053;28;20476;-72
2022/11/06 04:51:13;;;;;;;17.33;11.68;;;7.60;99.90;;;;;;5095922;28;20039;-71
2022/11/06 04:53:40;;;;;;;19.95;12.25;;;7.50;99.90;;;;;;5096046;28;20050;-70
2022/11/06 04:56:11;;;;;;;19.00;11.75;;;7.50;99.90;;;;;;5095456;28;20027;-72
2022/11/06 04:58:37;;;;;;;19.45;12.10;;;7.50;99.90;;;;;;5095998;28;20039;-72
2022/11/06 05:01:03;;;;;;;23.17;13.13;;;7.50;99.90;;;;;;5095466;28;20032;-71
2022/11/06 05:03:29;;;;;;;23.73;13.25;;;7.50;99.90;;;;;;5095759;28;20031;-71
2022/11/06 05:05:55;;;;;;;17.88;12.63;;;7.50;99.90;;;;;;5095286;28;20039;-71
2022/11/06 05:08:21;;;;;;;21.42;12.23;;;7.50;99.90;;;;;;5095935;28;20093;-71
2022/11/06 05:10:47;;;;;;;19.75;12.27;;;7.50;99.90;;;;;;5095648;28;20034;-71
2022/11/06 05:13:14;;;;;;;18.60;12.60;;;7.50;99.90;;;;;;5095547;28;20141;-72
2022/11/06 05:15:40;;;;;;;23.35;13.13;;;7.50;99.90;;;;;;5095545;28;20020;-71
2022/11/06 05:18:06;;;;;;;18.75;13.27;;;7.50;99.90;;;;;;5095083;28;20028;-71
2022/11/06 05:20:32;;;;;;;19.92;13.30;;;7.50;99.90;;;;;;5095622;28;20074;-70
2022/11/06 05:22:59;;;;;;;24.92;13.20;;;7.50;99.90;;;;;;5094939;28;20028;-70
2022/11/06 05:25:36;;;;;;;18.52;13.10;;;7.40;99.90;;;;;;5095240;28;20050;-71
2022/11/06 05:28:07;;;;;;;21.50;13.43;;;7.40;99.90;;;;;;5095046;28;20123;-71
2022/11/06 05:30:34;;;;;;;22.58;14.15;;;7.40;99.90;;;;;;5095349;28;20035;-71
2022/11/06 05:33:00;;;;;;;22.13;14.35;;;7.40;99.90;;;;;;5094840;28;20028;-71
2022/11/06 05:35:26;;;;;;;21.88;13.95;;;7.40;99.90;;;;;;5094686;28;20449;-71
2022/11/06 05:37:58;;;;;;;25.50;14.93;;;7.40;99.90;;;;;;5095083;28;20024;-71
2022/11/06 05:40:23;;;;;;;25.10;15.88;;;7.40;99.90;;;;;;5095562;28;20464;-71
2022/11/06 05:42:49;;;;;;;23.55;16.35;;;7.40;99.90;;;;;;5095109;28;20053;-70
2022/11/06 05:45:15;;;;;;;24.90;15.73;;;7.40;99.90;;;;;;5093328;28;20422;-70
2022/11/06 05:47:41;;;;;;;27.20;15.52;;;7.40;99.90;;;;;;5095140;28;20024;-72
2022/11/06 05:50:08;;;;;;;21.67;15.73;;;7.40;99.90;;;;;;5094597;28;20372;-71
2022/11/06 05:52:34;;;;;;;24.42;15.32;;;7.40;99.90;;;;;;5095227;28;20035;-71
2022/11/06 05:55:00;;;;;;;24.95;16.27;;;7.40;99.90;;;;;;5094248;28;20077;-71
2022/11/06 05:57:26;;;;;;;24.40;16.10;;;7.40;99.90;;;;;;5094808;28;20032;-71
2022/11/06 05:59:51;;;;;;;23.83;16.55;;;7.40;99.90;;;;;;5094306;28;20024;-72
2022/11/06 06:02:17;;;;;;;27.55;16.23;;;7.40;99.90;;;;;;5093411;28;20039;-71
2022/11/06 06:04:43;;;;;;;24.15;15.50;;;7.40;99.90;;;;;;5094457;28;20380;-71
2022/11/06 06:07:08;;;;;;;22.02;14.88;;;7.40;99.90;;;;;;5094236;28;20020;-71
2022/11/06 06:09:34;;;;;;;25.65;16.17;;;7.30;99.90;;;;;;5094209;28;20077;-71
2022/11/06 06:12:00;;;;;;;24.48;16.05;;;7.40;99.90;;;;;;5093927;28;20032;-72
2022/11/06 06:14:25;;;;;;;26.08;14.95;;;7.40;99.90;;;;;;5093340;28;20039;-71
2022/11/06 06:16:51;;;;;;;23.70;15.43;;;7.40;99.90;;;;;;5094539;28;20460;-71
2022/11/06 06:19:16;;;;;;;25.92;16.15;;;7.30;99.90;;;;;;5093946;28;20024;-71
2022/11/06 06:21:42;;;;;;;23.67;15.30;;;7.30;99.90;;;;;;5094189;28;20368;-71
2022/11/06 06:24:08;;;;;;;22.77;16.13;;;7.30;99.90;;;;;;5093748;28;20330;-71
2022/11/06 06:26:33;;;;;;;28.33;16.40;;;7.40;99.90;;;;;;5096457;28;20059;-71
2022/11/06 06:29:00;;;;;;;22.10;16.23;;;7.40;99.90;;;;;;5110352;28;20019;-77
2022/11/06 06:31:26;;;;;;;25.92;16.70;;;7.40;99.90;;;;;;5114719;28;20032;-71
2022/11/06 06:33:52;;;;;;;26.63;17.27;;;7.40;99.90;;;;;;5113193;28;20404;-72
2022/11/06 06:36:18;;;;;;;25.38;16.27;;;7.40;99.90;;;;;;5114101;28;20102;-71
2022/11/06 06:38:43;;;;;;;24.13;16.25;;;7.40;99.90;;;;;;5114390;28;20020;-71
2022/11/06 06:41:09;;;;;;;24.15;17.45;;;7.50;99.90;;;;;;5113619;28;20032;-72
2022/11/06 06:43:35;;;;;;;27.00;17.92;;;7.50;99.90;;;;;;5114343;28;20023;-71
2022/11/06 06:46:03;;;;;;;22.75;16.42;;;7.50;99.90;;;;;;5113829;28;20031;-74
2022/11/06 06:48:29;;;;;;;24.67;16.65;;;7.50;99.90;;;;;;5114365;28;20062;-71
2022/11/06 06:50:59;;;;;;;23.88;16.80;;;7.50;99.90;;;;;;5113951;28;20073;-72
2022/11/06 06:53:25;;;;;;;26.35;15.88;;;7.50;99.90;;;;;;5113720;28;20027;-73
2022/11/06 06:55:50;;;;;;;29.42;18.45;;;7.60;99.90;;;;;;5114150;28;20079;-71
2022/11/06 06:58:16;;;;;;;34.40;19.83;;;7.60;99.90;;;;;;5113918;28;20452;-71
2022/11/06 07:00:41;;;;;;;31.58;18.42;;;7.60;99.90;;;;;;5113993;28;20031;-71
2022/11/06 07:03:08;;;;;;;27.23;17.23;;;7.60;99.90;;;;;;5113624;28;20480;-71
2022/11/06 07:05:33;;;;;;;26.27;16.40;;;7.60;99.90;;;;;;5113974;28;20532;-72
2022/11/06 07:07:59;;;;;;;27.45;16.92;;;7.70;99.90;;;;;;5113625;28;20028;-72
2022/11/06 07:10:24;;;;;;;22.77;14.82;;;7.80;99.90;;;;;;5113173;28;20024;-72
2022/11/06 07:12:50;;;;;;;24.33;15.00;;;7.90;99.90;;;;;;5113685;28;20032;-71
2022/11/06 07:15:16;;;;;;;21.05;14.30;;;8.10;99.90;;;;;;5113067;28;20023;-71
2022/11/06 07:17:42;;;;;;;20.58;14.35;;;8.30;99.90;;;;;;5114097;28;20417;-71
2022/11/06 07:20:08;;;;;;;21.27;14.18;;;8.50;99.90;;;;;;5111916;28;20057;-72
2022/11/06 07:22:34;;;;;;;20.67;13.20;;;8.70;99.90;;;;;;5113353;28;20035;-72
2022/11/06 07:24:59;;;;;;;19.85;12.88;;;8.90;99.90;;;;;;5113608;28;20023;-71
2022/11/06 07:27:25;;;;;;;17.88;12.43;;;9.10;99.90;;;;;;5113130;28;20028;-71
2022/11/06 07:29:51;;;;;;;22.95;13.00;;;9.30;99.90;;;;;;5113033;28;20056;-72
2022/11/06 07:32:16;;;;;;;16.42;11.38;;;9.50;99.90;;;;;;5112976;28;20368;-72
2022/11/06 07:34:43;;;;;;;16.60;11.88;;;9.70;99.90;;;;;;5112945;28;20048;-71
2022/11/06 07:37:08;;;;;;;14.63;10.32;;;9.90;99.90;;;;;;5112941;28;20148;-72
2022/11/06 07:39:34;;;;;;;18.52;11.30;;;10.00;99.90;;;;;;5113196;28;20073;-72
2022/11/06 07:41:59;;;;;;;15.32;11.10;;;10.10;99.90;;;;;;5111883;28;20031;-72
2022/11/06 07:44:25;;;;;;;15.35;10.88;;;10.30;99.90;;;;;;5113073;28;20035;-72
2022/11/06 07:46:51;;;;;;;16.80;11.05;;;10.50;99.90;;;;;;5113285;28;20398;-72
2022/11/06 07:49:16;;;;;;;16.25;11.02;;;10.70;99.90;;;;;;5112567;28;20058;-72
2022/11/06 07:51:43;;;;;;;17.70;10.90;;;10.90;99.90;;;;;;5112899;28;20028;-71
2022/11/06 07:54:10;;;;;;;13.75;10.23;;;11.10;99.90;;;;;;5112826;28;20035;-71
2022/11/06 07:56:35;;;;;;;14.65;9.82;;;11.20;99.90;;;;;;5113443;28;20026;-72
2022/11/06 07:59:01;;;;;;;15.25;11.50;;;11.40;99.90;;;;;;5113072;28;20444;-70
2022/11/06 08:01:27;;;;;;;13.00;9.65;;;11.50;99.90;;;;;;5112741;28;20544;-71
2022/11/06 08:03:52;;;;;;;14.68;9.80;;;11.60;99.90;;;;;;5112979;28;20042;-71
2022/11/06 08:06:18;;;;;;;13.52;9.82;;;11.70;99.90;;;;;;5112374;28;20070;-71
2022/11/06 08:08:43;;;;;;;16.38;10.13;;;11.80;99.90;;;;;;5113011;28;20452;-73
2022/11/06 08:11:10;;;;;;;14.18;9.82;;;11.90;99.90;;;;;;5112489;28;20024;-73
2022/11/06 08:13:36;;;;;;;17.83;9.60;;;11.90;99.70;;;;;;5112982;28;20032;-72
2022/11/06 08:16:06;;;;;;;12.77;8.75;;;12.00;98.90;;;;;;5112822;28;20110;-72
2022/11/06 08:18:32;;;;;;;13.48;9.00;;;12.10;99.00;;;;;;5112914;28;20023;-71
2022/11/06 08:20:58;;;;;;;15.13;9.70;;;12.10;97.80;;;;;;5101192;28;20032;-73
2022/11/06 08:23:24;;;;;;;13.30;8.73;;;12.10;97.90;;;;;;5092177;28;20030;-72
2022/11/06 08:25:56;;;;;;;14.07;9.27;;;12.10;98.00;;;;;;5096878;28;20032;-71
2022/11/06 08:28:22;;;;;;;15.80;10.45;;;12.10;97.70;;;;;;5096119;28;20562;-72
2022/11/06 08:30:48;;;;;;;12.55;8.68;;;12.10;97.80;;;;;;5110529;28;20068;-72
2022/11/06 08:33:13;;;;;;;16.67;8.80;;;12.20;97.50;;;;;;5116233;28;20110;-72
2022/11/06 08:35:39;;;;;;;13.20;7.68;;;12.10;96.90;;;;;;5116629;28;20035;-72
2022/11/06 08:38:05;;;;;;;7.05;5.07;;;12.20;97.00;;;;;;5116742;28;20028;-72
2022/11/06 08:40:31;;;;;;;8.02;3.67;;;12.20;96.00;;;;;;5114930;28;20452;-71
2022/11/06 08:43:02;;;;;;;7.80;3.40;;;12.20;93.30;;;;;;5116624;28;20034;-71
2022/11/06 08:45:28;;;;;;;6.63;3.75;;;12.20;92.30;;;;;;5115954;28;20546;-71
2022/11/06 08:47:54;;;;;;;7.97;3.78;;;12.20;92.40;;;;;;5116782;28;20028;-73
2022/11/06 08:50:20;;;;;;;9.05;3.75;;;12.20;91.70;;;;;;5115910;28;20023;-72
2022/11/06 08:52:45;;;;;;;8.70;5.70;;;12.20;90.50;;;;;;5116296;28;20024;-72
2022/11/06 08:55:11;;;;;;;10.80;6.80;;;12.20;91.40;;;;;;5116110;28;20024;-73
2022/11/06 08:57:37;;;;;;;10.82;7.65;;;12.30;92.40;;;;;;5116675;28;20070;-72
2022/11/06 09:00:03;;;;;;;11.13;6.95;;;12.40;92.90;;;;;;5116505;28;20474;-72
2022/11/06 09:02:29;;;;;;;10.82;6.75;;;12.50;93.40;;;;;;5115733;28;20115;-71
2022/11/06 09:04:55;;;;;;;12.15;7.20;;;12.60;92.10;;;;;;5115947;28;20104;-72
2022/11/06 09:07:20;;;;;;;10.40;6.78;;;12.80;91.60;;;;;;5115734;28;20039;-71
2022/11/06 09:09:46;;;;;;;9.93;5.80;;;12.90;91.50;;;;;;5116061;28;20039;-71
2022/11/06 09:12:11;;;;;;;10.23;6.43;;;13.00;90.40;;;;;;5116010;28;20058;-73
2022/11/06 09:14:38;;;;;;;10.25;6.22;;;13.20;90.50;;;;;;5116186;28;20067;-71
2022/11/06 09:17:04;;;;;;;8.63;6.47;;;13.30;90.20;;;;;;5116137;28;20024;-71
2022/11/06 09:19:30;;;;;;;8.98;5.68;;;13.30;88.80;;;;;;5115328;28;20030;-72
2022/11/06 09:21:56;;;;;;;9.77;5.80;;;13.50;87.70;;;;;;5115516;28;20068;-73
2022/11/06 09:24:21;;;;;;;9.60;4.75;;;13.60;87.60;;;;;;5115232;28;20031;-71
2022/11/06 09:26:47;;;;;;;12.07;6.07;;;13.70;85.60;;;;;;5115909;28;20098;-72
2022/11/06 09:29:13;;;;;;;9.65;5.30;;;13.90;83.20;;;;;;5115095;28;20440;-72
2022/11/06 09:31:38;;;;;;;9.45;5.82;;;13.90;84.20;;;;;;5115771;28;20424;-72
2022/11/06 09:34:04;;;;;;;7.57;5.18;;;14.00;84.10;;;;;;5115494;28;20051;-72
2022/11/06 09:36:30;;;;;;;12.52;5.53;;;14.10;82.50;;;;;;5114905;28;20062;-72
2022/11/06 09:38:56;;;;;;;8.45;5.03;;;14.20;80.70;;;;;;5115582;28;20024;-71
2022/11/06 09:41:40;;;;;;;10.10;5.45;;;14.40;81.10;;;;;;5114739;28;20073;-71
2022/11/06 09:44:36;;;;;;;8.52;5.07;;;14.40;79.30;;;;;;5115436;28;20122;-71
2022/11/06 09:47:08;;;;;;;12.13;4.43;;;14.60;79.90;;;;;;5115152;28;20478;-71
2022/11/06 09:49:40;;;;;;;12.13;4.30;;;14.70;77.40;;;;;;5115056;28;20035;-71
2022/11/06 09:52:33;;;;;;;7.80;3.95;;;14.70;75.60;;;;;;5115346;27;20111;-71
2022/11/06 09:55:00;;;;;;;8.50;4.05;;;14.90;75.00;;;;;;5115423;28;20024;-72
2022/11/06 09:57:35;;;;;;;8.15;3.30;;;15.00;74.90;;;;;;5114639;28;20019;-71
2022/11/06 10:00:03;;;;;;;9.90;3.50;;;15.20;72.50;;;;;;5115158;28;20168;-72
2022/11/06 10:02:47;;;;;;;7.53;3.03;;;15.00;70.50;;;;;;5113418;28;20024;-71
2022/11/06 10:05:24;;;;;;;7.22;2.90;;;15.10;70.70;;;;;;5114062;28;20032;-72
2022/11/06 10:07:59;;;;;;;7.75;2.72;;;15.20;71.00;;;;;;5115019;28;20099;-72
2022/11/06 10:10:48;;;;;;;5.70;2.25;;;15.30;69.00;;;;;;5114664;28;20035;-72
2022/11/06 10:13:25;;;;;;;10.40;2.45;;;15.20;67.70;;;;;;5082862;28;20139;-72
2022/11/06 10:15:54;;;;;;;8.15;3.53;;;15.30;68.50;;;;;;5114907;28;20093;-72
2022/11/06 10:18:30;;;;;;;5.30;3.00;;;15.20;66.90;;;;;;5114121;28;20085;-71
2022/11/06 10:21:19;;;;;;;9.77;3.40;;;15.10;66.50;;;;;;5114747;28;20028;-71
2022/11/06 10:24:00;;;;;;;6.95;3.35;;;15.20;68.80;;;;;;5114683;28;20058;-72
2022/11/06 10:26:44;;;;;;;7.22;3.60;;;15.20;67.30;;;;;;5113964;28;20502;-71
2022/11/06 10:29:35;;;;;;;8.88;3.38;;;15.10;66.60;;;;;;5110995;28;20114;-73
2022/11/06 10:32:04;;;;;;;7.75;3.65;;;15.30;68.40;;;;;;5114285;28;20388;-71
2022/11/06 10:34:36;;;;;;;10.60;3.72;;;15.30;67.00;;;;;;5113782;28;20478;-72
2022/11/06 10:37:15;;;;;;;9.98;3.90;;;15.40;67.20;;;;;;5113822;28;20046;-71
2022/11/06 10:39:41;;;;;;;9.10;4.05;;;15.40;66.60;;;;;;5113881;28;20418;-71
2022/11/06 10:42:19;;;;;;;6.03;3.58;;;15.40;66.70;;;;;;5114125;28;20040;-71
2022/11/06 10:44:50;;;;;;;8.77;4.55;;;15.50;67.10;;;;;;5113910;28;20039;-71
2022/11/06 10:47:18;;;;;;;8.68;4.13;;;15.60;67.40;;;;;;5113488;28;20024;-71
2022/11/06 10:49:49;;;;;;;9.32;2.72;;;15.50;67.00;;;;;;5114034;28;20324;-72
2022/11/06 10:52:17;;;;;;;;;;;15.60;64.20;;;;;;5114462;28;20030;-72
2022/11/06 10:55:01;;;;;;;7.68;2.92;;;15.60;63.60;;;;;;5114240;28;19987;-71
2022/11/06 10:57:27;;;;;;;9.07;3.28;;;15.50;63.40;;;;;;5113623;28;20023;-72
2022/11/06 10:59:53;;;;;;;6.25;2.80;;;15.50;64.40;;;;;;5113941;28;20102;-72
2022/11/06 11:02:36;;;;;;;4.35;2.90;;;15.50;63.90;;;;;;5113487;28;20453;-76
2022/11/06 11:05:09;;;;;;;6.90;2.53;;;15.50;64.30;;;;;;5113911;28;20024;-71
2022/11/06 11:07:35;;;;;;;6.93;2.00;;;15.60;63.30;;;;;;5113476;28;20464;-72
2022/11/06 11:10:23;;;;;;;9.90;2.47;;;15.50;62.50;;;;;;5113765;28;20111;-70
2022/11/06 11:12:51;;;;;;;2.88;1.70;;;15.40;61.80;;;;;;5113422;28;20384;-72
2022/11/06 11:15:22;;;;;;;4.13;1.80;;;15.30;59.50;;;;;;5113649;28;20058;-71
2022/11/06 11:18:12;;;;;;;8.55;2.17;;;15.30;60.40;;;;;;5113571;28;20510;-71
2022/11/06 11:20:46;;;;;;;6.20;2.25;;;15.40;60.60;;;;;;5111613;28;20106;-72
2022/11/06 11:23:16;;;;;;;6.28;2.10;;;15.20;59.70;;;;;;5113322;28;20494;-71
2022/11/06 11:25:46;;;;;;;6.57;1.95;;;15.30;60.30;;;;;;5112994;28;20063;-72
2022/11/06 11:28:32;;;;;;;6.30;2.05;;;15.20;59.90;;;;;;5113357;28;20032;-71
2022/11/06 11:31:04;;;;;;;8.52;2.72;;;15.40;60.80;;;;;;5113254;28;20054;-72
2022/11/06 11:33:30;;;;;;;5.90;1.77;;;15.50;60.50;;;;;;5112668;28;20139;-72
2022/11/06 11:35:56;;;;;;;7.28;2.10;;;15.60;59.10;;;;;;5113090;28;20482;-72
2022/11/06 11:38:22;;;;;;;6.55;2.20;;;15.70;59.30;;;;;;5112716;28;20031;-79
2022/11/06 11:40:50;;;;;;;8.68;1.90;;;15.70;59.30;;;;;;5113177;28;20028;-72
2022/11/06 11:43:19;;;;;;;5.30;2.17;;;15.60;58.20;;;;;;5113073;28;20031;-71
2022/11/06 11:46:03;;;;;;;5.28;1.70;;;15.80;58.50;;;;;;5112479;28;20097;-74
2022/11/06 11:48:50;;;;;;;3.33;1.90;;;15.60;57.50;;;;;;5112754;28;20384;-71
2022/11/06 11:51:25;;;;;;;8.30;1.92;;;15.50;56.70;;;;;;5113148;28;20068;-71
2022/11/06 11:53:53;;;;;;;7.55;2.00;;;15.40;57.20;;;;;;5113421;28;20360;-71
2022/11/06 11:56:21;;;;;;;5.38;2.00;;;15.40;57.50;;;;;;5113088;28;20023;-72
2022/11/06 11:58:56;;;;;;;5.80;1.90;;;15.50;58.10;;;;;;5112592;28;20452;-73
2022/11/06 12:01:40;;;;;;;5.90;2.30;;;15.70;58.20;;;;;;5112763;28;20491;-71
2022/11/06 12:04:41;;;;;;;7.38;1.75;;;15.70;56.60;;;;;;5113312;28;20378;-72
2022/11/06 12:07:22;;;;;;;5.73;2.13;;;15.60;56.70;;;;;;5109760;28;20145;-71
2022/11/06 12:09:48;;;;;;;;;;;15.70;56.70;;;;;;5113219;28;20244;-73
2022/11/06 12:12:31;;;;;;;6.88;2.00;;;15.70;57.50;;;;;;5113115;28;20259;-72
2022/11/06 12:15:05;;;;;;;4.28;1.95;;;15.90;58.00;;;;;;5113121;28;20028;-72
2022/11/06 12:17:33;;;;;;;6.18;2.30;;;15.90;56.90;;;;;;5111229;28;20106;-71
2022/11/06 12:20:01;;;;;;;4.13;2.05;;;15.80;56.50;;;;;;5112410;28;20333;-70
2022/11/06 12:22:35;;;;;;;4.57;2.38;;;15.60;56.30;;;;;;5112143;28;20046;-73
2022/11/06 12:25:20;;;;;;;5.10;1.90;;;15.70;57.30;;;;;;5097329;28;20067;-71
2022/11/06 12:27:50;;;;;;;3.92;1.80;;;15.80;56.30;;;;;;5092054;28;20035;-72
2022/11/06 12:30:18;;;;;;;4.15;1.77;;;15.90;55.60;;;;;;5092236;28;20024;-71
2022/11/06 12:33:05;;;;;;;10.07;2.10;;;15.80;54.90;;;;;;5091606;28;20403;-71
2022/11/06 12:35:36;;;;;;;6.90;1.70;;;15.70;55.40;;;;;;5091436;28;20504;-70
2022/11/06 12:38:36;;;;;;;3.53;1.45;;;15.70;55.60;;;;;;5098439;28;20047;-70
2022/11/06 12:41:20;;;;;;;5.70;1.75;;;15.50;53.20;;;;;;5112722;28;20028;-72
2022/11/06 12:43:48;;;;;;;4.70;1.85;;;15.40;53.60;;;;;;5112167;28;20039;-72
2022/11/06 12:46:29;;;;;;;5.60;1.77;;;15.30;54.30;;;;;;5112344;28;20059;-72
2022/11/06 12:49:19;;;;;;;3.10;1.70;;;15.30;55.80;;;;;;5112396;28;20020;-71
2022/11/06 12:51:46;;;;;;;5.22;1.50;;;15.10;54.60;;;;;;5112009;28;20059;-72
2022/11/06 12:54:12;;;;;;;4.90;1.30;;;15.10;55.50;;;;;;5112307;28;20024;-71
2022/11/06 12:57:15;;;;;;;3.25;1.80;;;15.00;54.70;;;;;;5111621;28;20015;-71
2022/11/06 12:59:59;;;;;;;3.92;1.92;;;14.90;55.10;;;;;;5112025;28;20022;-71
2022/11/06 13:03:10;;;;;;;6.13;1.73;;;14.80;54.60;;;;;;5112262;28;20067;-72
2022/11/06 13:05:59;;;;;;;4.65;1.85;;;14.70;56.20;;;;;;5112885;27;20047;-72
2022/11/06 13:08:46;;;;;;;4.97;1.75;;;14.70;56.10;;;;;;5112028;28;20028;-72
2022/11/06 13:11:43;;;;;;;4.85;1.80;;;14.50;56.20;;;;;;5114862;28;20027;-72
2022/11/06 13:14:24;;;;;;;4.50;1.98;;;14.40;56.90;;;;;;5115901;28;20451;-71